createdAt,value
2019-05-02T00:02:01.088Z,15.98
2019-05-02T00:04:30.973Z,16.25
2019-05-02T00:07:22.205Z,15.91
2019-05-02T00:09:52.423Z,16.04
2019-05-02T00:12:22.303Z,16.00
2019-05-02T00:14:56.461Z,16.20
2019-05-02T00:17:25.650Z,16.19
2019-05-02T00:19:55.830Z,15.92
2019-05-02T00:22:26.256Z,15.97
2019-05-02T00:24:56.070Z,15.72
2019-05-02T00:27:26.646Z,15.83
2019-05-02T00:29:58.837Z,15.72
2019-05-02T00:32:27.738Z,15.84
2019-05-02T00:34:57.491Z,15.84
2019-05-02T00:37:27.702Z,15.77
2019-05-02T00:39:57.907Z,15.65
2019-05-02T00:42:27.624Z,15.68
2019-05-02T00:44:57.532Z,15.62
2019-05-02T00:47:47.910Z,15.79
2019-05-02T00:50:17.460Z,15.73
2019-05-02T00:52:47.545Z,15.61
2019-05-02T00:55:17.655Z,15.77
2019-05-02T00:57:50.945Z,15.89
2019-05-02T01:00:19.836Z,15.72
2019-05-02T01:03:02.026Z,15.60
2019-05-02T01:05:33.832Z,15.53
2019-05-02T01:08:04.339Z,15.44
2019-05-02T01:10:34.573Z,15.53
2019-05-02T01:13:04.254Z,15.46
2019-05-02T01:15:34.056Z,15.56
2019-05-02T01:18:06.086Z,15.35
2019-05-02T01:20:35.539Z,15.51
2019-05-02T01:23:05.319Z,15.42
2019-05-02T01:25:35.118Z,15.66
2019-05-02T01:28:20.712Z,15.40
2019-05-02T01:31:13.135Z,15.49
2019-05-02T01:34:13.051Z,15.36
2019-05-02T01:36:48.740Z,15.47
2019-05-02T01:39:18.585Z,15.61
2019-05-02T01:41:48.349Z,15.64
2019-05-02T01:44:18.445Z,15.66
2019-05-02T01:46:48.367Z,15.46
2019-05-02T01:49:21.813Z,15.62
2019-05-02T01:51:50.304Z,15.49
2019-05-02T01:54:20.006Z,15.61
2019-05-02T01:56:49.846Z,15.56
2019-05-02T01:59:19.647Z,15.56
2019-05-02T02:01:53.102Z,15.64
2019-05-02T02:04:22.281Z,15.53
2019-05-02T02:06:52.205Z,15.56
2019-05-02T02:09:22.693Z,15.64
2019-05-02T02:11:52.688Z,15.58
2019-05-02T02:14:22.428Z,15.52
2019-05-02T02:16:52.214Z,15.40
2019-05-02T02:19:40.776Z,15.30
2019-05-02T02:22:28.363Z,15.47
2019-05-02T02:25:15.968Z,15.50
2019-05-02T02:27:45.952Z,15.45
2019-05-02T02:30:17.727Z,15.46
2019-05-02T02:32:48.029Z,15.61
2019-05-02T02:35:17.893Z,15.39
2019-05-02T02:37:53.095Z,15.44
2019-05-02T02:40:19.141Z,15.19
2019-05-02T02:42:48.983Z,15.29
2019-05-02T02:46:00.030Z,15.18
2019-05-02T02:48:33.902Z,15.14
2019-05-02T02:51:01.981Z,15.05
2019-05-02T02:53:31.904Z,15.07
2019-05-02T02:56:07.206Z,15.04
2019-05-02T02:58:45.249Z,15.14
2019-05-02T03:01:09.665Z,14.99
2019-05-02T03:03:39.394Z,14.81
2019-05-02T03:06:09.634Z,14.80
2019-05-02T03:08:46.143Z,14.68
2019-05-02T03:11:22.310Z,14.67
2019-05-02T03:13:59.692Z,14.74
2019-05-02T03:16:26.637Z,14.54
2019-05-02T03:18:56.513Z,14.45
2019-05-02T03:21:26.161Z,14.29
2019-05-02T03:24:03.026Z,14.16
2019-05-02T03:26:28.015Z,14.26
2019-05-02T03:29:00.454Z,14.33
2019-05-02T03:31:31.005Z,14.24
2019-05-02T03:34:17.117Z,14.23
2019-05-02T03:36:46.958Z,14.19
2019-05-02T03:39:17.528Z,14.14
2019-05-02T03:41:47.467Z,14.18
2019-05-02T03:44:24.661Z,14.09
2019-05-02T03:46:54.276Z,14.18
2019-05-02T03:49:20.637Z,14.03
2019-05-02T03:51:55.831Z,13.89
2019-05-02T03:54:22.442Z,13.85
2019-05-02T03:56:53.454Z,14.05
2019-05-02T03:59:23.327Z,14.06
2019-05-02T04:01:53.530Z,14.35
2019-05-02T04:04:23.256Z,14.14
2019-05-02T04:06:55.052Z,13.97
2019-05-02T04:09:40.049Z,14.14
2019-05-02T04:12:18.689Z,13.94
2019-05-02T04:14:41.022Z,14.70
2019-05-02T04:17:12.286Z,14.40
2019-05-02T04:19:42.167Z,14.29
2019-05-02T04:22:12.516Z,14.64
2019-05-02T04:24:48.005Z,14.50
2019-05-02T04:27:15.849Z,14.30
2019-05-02T04:29:45.690Z,14.33
2019-05-02T04:32:16.019Z,14.53
2019-05-02T04:34:49.058Z,14.22
2019-05-02T04:37:17.891Z,14.41
2019-05-02T04:39:49.124Z,14.42
2019-05-02T04:42:22.881Z,14.37
2019-05-02T04:45:12.027Z,14.28
2019-05-02T04:47:23.431Z,14.34
2019-05-02T04:49:53.613Z,14.29
2019-05-02T04:52:24.663Z,14.60
2019-05-02T04:55:08.016Z,14.38
2019-05-02T04:57:35.960Z,14.45
2019-05-02T05:00:06.147Z,14.71
2019-05-02T05:02:36.640Z,14.53
2019-05-02T05:05:02.103Z,14.48
2019-05-02T05:07:40.910Z,14.63
2019-05-02T05:10:04.325Z,14.59
2019-05-02T05:12:38.035Z,14.86
2019-05-02T05:15:07.830Z,14.60
2019-05-02T05:17:37.783Z,14.67
2019-05-02T05:20:14.166Z,14.58
2019-05-02T05:22:44.136Z,14.53
2019-05-02T05:25:17.794Z,14.68
2019-05-02T05:27:52.710Z,14.54
2019-05-02T05:30:19.714Z,14.55
2019-05-02T05:32:49.433Z,14.61
2019-05-02T05:35:19.247Z,14.74
2019-05-02T05:37:52.947Z,14.62
2019-05-02T05:40:22.657Z,14.63
2019-05-02T05:42:53.016Z,14.57
2019-05-02T05:45:22.647Z,14.47
2019-05-02T05:47:57.545Z,14.55
2019-05-02T05:50:24.618Z,14.63
2019-05-02T05:52:54.932Z,14.56
2019-05-02T05:55:24.849Z,14.73
2019-05-02T05:57:59.638Z,14.51
2019-05-02T06:00:27.825Z,14.60
2019-05-02T06:03:10.284Z,14.69
2019-05-02T06:05:33.304Z,14.79
2019-05-02T06:08:00.989Z,14.52
2019-05-02T06:10:30.713Z,14.44
2019-05-02T06:13:00.505Z,14.53
2019-05-02T06:15:33.879Z,14.54
2019-05-02T06:18:04.716Z,14.50
2019-05-02T06:20:34.389Z,14.52
2019-05-02T06:23:04.319Z,14.67
2019-05-02T06:25:36.781Z,14.47
2019-05-02T06:28:06.761Z,14.59
2019-05-02T06:30:36.663Z,14.44
2019-05-02T06:33:06.499Z,14.55
2019-05-02T06:35:36.292Z,14.65
2019-05-02T06:38:06.040Z,14.64
2019-05-02T06:40:39.287Z,14.78
2019-05-02T06:43:09.863Z,14.86
2019-05-02T06:45:39.707Z,14.92
2019-05-02T06:48:17.242Z,14.98
2019-05-02T06:50:41.056Z,15.28
2019-05-02T06:53:11.261Z,15.32
2019-05-02T06:55:40.896Z,15.29
2019-05-02T06:58:10.555Z,15.67
2019-05-02T07:00:56.689Z,16.07
2019-05-02T07:03:11.787Z,16.18
2019-05-02T07:05:41.588Z,16.28
2019-05-02T07:08:13.534Z,16.16
2019-05-02T07:10:44.778Z,16.41
2019-05-02T07:13:15.157Z,16.36
2019-05-02T07:16:15.233Z,16.30
2019-05-02T07:18:47.411Z,16.64
2019-05-02T07:21:23.184Z,16.84
2019-05-02T07:23:53.753Z,16.28
2019-05-02T07:26:23.339Z,17.05
2019-05-02T07:28:53.461Z,17.10
2019-05-02T07:31:23.217Z,17.18
2019-05-02T07:33:52.954Z,17.20
2019-05-02T07:36:22.754Z,17.28
2019-05-02T07:38:52.556Z,17.33
2019-05-02T07:41:24.237Z,17.31
2019-05-02T07:43:56.335Z,17.39
2019-05-02T07:46:24.968Z,17.60
2019-05-02T07:48:54.984Z,17.65
2019-05-02T07:51:26.077Z,17.68
2019-05-02T07:53:56.054Z,17.85
2019-05-02T07:56:25.701Z,18.09
2019-05-02T07:58:55.401Z,18.12
2019-05-02T08:01:25.067Z,18.15
2019-05-02T08:03:54.774Z,18.55
2019-05-02T08:06:34.935Z,18.34
2019-05-02T08:08:56.005Z,18.53
2019-05-02T08:11:25.821Z,18.93
2019-05-02T08:14:00.109Z,19.09
2019-05-02T08:16:27.386Z,19.18
2019-05-02T08:19:01.403Z,18.81
2019-05-02T08:21:32.498Z,18.76
2019-05-02T08:24:02.317Z,18.82
2019-05-02T08:26:53.462Z,19.03
2019-05-02T08:29:23.290Z,19.20
2019-05-02T08:31:53.895Z,19.33
2019-05-02T08:34:30.714Z,19.40
2019-05-02T08:37:03.355Z,19.56
2019-05-02T08:39:33.877Z,19.52
2019-05-02T08:42:03.409Z,19.66
2019-05-02T08:44:33.022Z,19.50
2019-05-02T08:47:02.731Z,19.58
2019-05-02T08:49:32.335Z,19.51
2019-05-02T08:52:01.945Z,19.87
2019-05-02T08:54:32.828Z,19.65
2019-05-02T08:57:03.050Z,19.96
2019-05-02T08:59:32.734Z,19.94
2019-05-02T09:02:02.410Z,19.83
2019-05-02T09:04:32.072Z,19.84
2019-05-02T09:07:01.806Z,20.23
2019-05-02T09:09:31.442Z,20.60
2019-05-02T09:12:11.469Z,20.62
2019-05-02T09:14:32.560Z,20.49
2019-05-02T09:17:08.574Z,20.38
2019-05-02T09:19:34.861Z,20.38
2019-05-02T09:22:07.456Z,20.77
2019-05-02T09:24:36.180Z,20.80
2019-05-02T09:27:05.878Z,20.94
2019-05-02T09:29:37.329Z,20.73
2019-05-02T09:32:07.121Z,20.55
2019-05-02T09:34:36.865Z,20.51
2019-05-02T09:37:06.515Z,20.59
2019-05-02T09:39:36.656Z,20.56
2019-05-02T09:42:10.843Z,20.67
2019-05-02T09:44:37.900Z,20.71
2019-05-02T09:47:09.202Z,20.78
2019-05-02T09:49:41.730Z,20.77
2019-05-02T09:52:11.868Z,21.06
2019-05-02T09:54:46.009Z,21.35
2019-05-02T09:57:15.479Z,21.45
2019-05-02T09:59:50.523Z,21.73
2019-05-02T10:02:16.555Z,21.77
2019-05-02T10:04:46.189Z,21.67
2019-05-02T10:07:15.933Z,21.52
2019-05-02T10:09:45.765Z,21.27
2019-05-02T10:12:15.412Z,21.50
2019-05-02T10:14:45.136Z,21.74
2019-05-02T10:17:14.857Z,21.75
2019-05-02T10:19:49.531Z,21.78
2019-05-02T10:22:16.073Z,21.72
2019-05-02T10:24:46.339Z,21.94
2019-05-02T10:27:16.419Z,22.14
2019-05-02T10:29:46.128Z,22.40
2019-05-02T10:32:16.781Z,22.61
2019-05-02T10:34:47.591Z,22.85
2019-05-02T10:37:17.904Z,22.60
2019-05-02T10:39:48.231Z,22.92
2019-05-02T10:42:17.925Z,23.07
2019-05-02T10:44:47.702Z,23.16
2019-05-02T10:47:17.348Z,23.34
2019-05-02T10:50:02.312Z,22.85
2019-05-02T10:52:34.316Z,22.25
2019-05-02T10:55:03.511Z,22.55
2019-05-02T10:57:33.486Z,22.67
2019-05-02T11:00:04.017Z,23.10
2019-05-02T11:03:12.043Z,22.62
2019-05-02T11:05:43.754Z,22.48
2019-05-02T11:08:13.699Z,22.76
2019-05-02T11:10:44.628Z,22.97
2019-05-02T11:13:23.726Z,22.98
2019-05-02T11:16:18.503Z,23.00
2019-05-02T11:19:09.844Z,23.31
2019-05-02T11:21:52.271Z,23.02
2019-05-02T11:24:13.662Z,23.01
2019-05-02T11:26:42.993Z,23.14
2019-05-02T11:29:12.784Z,22.89
2019-05-02T11:31:42.814Z,23.25
2019-05-02T11:34:12.628Z,23.07
2019-05-02T11:36:42.695Z,23.15
2019-05-02T11:39:20.437Z,23.23
2019-05-02T11:41:44.178Z,23.09
2019-05-02T11:44:13.919Z,23.03
2019-05-02T11:46:46.838Z,22.84
2019-05-02T11:49:15.515Z,22.87
2019-05-02T11:51:47.024Z,22.46
2019-05-02T11:54:16.935Z,22.63
2019-05-02T11:56:51.344Z,22.20
2019-05-02T11:59:20.792Z,22.36
2019-05-02T12:02:00.112Z,22.08
2019-05-02T12:04:32.585Z,21.68
2019-05-02T12:07:04.853Z,21.19
2019-05-02T12:09:33.928Z,21.10
2019-05-02T12:12:03.616Z,20.42
2019-05-02T12:14:36.329Z,20.23
2019-05-02T12:17:05.063Z,19.95
2019-05-02T12:19:35.559Z,19.62
2019-05-02T12:22:07.234Z,19.51
2019-05-02T12:24:40.848Z,19.42
2019-05-02T12:27:08.598Z,19.70
2019-05-02T12:29:38.506Z,19.68
2019-05-02T12:32:08.228Z,19.91
2019-05-02T12:34:37.838Z,20.26
2019-05-02T12:37:07.510Z,20.48
2019-05-02T12:39:37.378Z,20.96
2019-05-02T12:42:07.772Z,21.25
2019-05-02T12:44:37.558Z,21.67
2019-05-02T12:47:08.651Z,21.80
2019-05-02T12:49:38.336Z,21.75
2019-05-02T12:52:08.108Z,22.09
2019-05-02T12:54:37.778Z,21.96
2019-05-02T12:57:07.552Z,21.87
2019-05-02T12:59:37.231Z,22.34
2019-05-02T13:02:12.171Z,22.77
2019-05-02T13:04:42.053Z,23.07
2019-05-02T13:07:12.806Z,23.22
2019-05-02T13:09:42.607Z,23.41
2019-05-02T13:12:22.798Z,23.31
2019-05-02T13:14:53.543Z,23.42
2019-05-02T13:17:25.847Z,23.33
2019-05-02T13:20:00.755Z,23.00
2019-05-02T13:22:52.770Z,22.38
2019-05-02T13:25:27.259Z,22.77
2019-05-02T13:27:55.730Z,23.01
2019-05-02T13:30:42.872Z,23.11
2019-05-02T13:33:34.441Z,23.41
2019-05-02T13:35:59.268Z,22.88
2019-05-02T13:38:32.935Z,22.95
2019-05-02T13:41:08.208Z,23.65
2019-05-02T13:43:44.516Z,23.20
2019-05-02T13:46:22.401Z,23.33
2019-05-02T13:48:52.570Z,23.71
2019-05-02T13:51:22.457Z,23.52
2019-05-02T13:54:02.400Z,23.85
2019-05-02T13:56:52.813Z,23.53
2019-05-02T13:59:22.616Z,23.73
2019-05-02T14:01:53.986Z,23.20
2019-05-02T14:04:23.817Z,23.00
2019-05-02T14:06:53.621Z,23.48
2019-05-02T14:09:50.912Z,23.53
2019-05-02T14:12:32.046Z,23.91
2019-05-02T14:15:03.114Z,23.86
2019-05-02T14:17:33.088Z,23.84
2019-05-02T14:20:10.324Z,23.64
2019-05-02T14:22:34.164Z,23.91
2019-05-02T14:25:04.014Z,23.62
2019-05-02T14:27:34.204Z,23.94
2019-05-02T14:30:04.163Z,24.33
2019-05-02T14:32:33.912Z,24.18
2019-05-02T14:35:24.150Z,23.86
2019-05-02T14:38:14.150Z,23.76
2019-05-02T14:41:03.568Z,23.16
2019-05-02T14:43:53.759Z,23.21
2019-05-02T14:46:33.265Z,23.09
2019-05-02T14:48:59.334Z,22.75
2019-05-02T14:51:29.155Z,22.93
2019-05-02T14:54:03.496Z,23.08
2019-05-02T14:57:07.605Z,23.07
2019-05-02T14:59:37.366Z,23.10
2019-05-02T15:02:12.987Z,23.07
2019-05-02T15:04:44.384Z,23.30
2019-05-02T15:07:17.609Z,23.33
2019-05-02T15:09:45.654Z,23.13
2019-05-02T15:12:18.826Z,23.46
2019-05-02T15:14:49.735Z,23.40
2019-05-02T15:17:18.736Z,23.34
2019-05-02T15:19:48.801Z,23.03
2019-05-02T15:22:18.527Z,23.42
2019-05-02T15:24:48.602Z,22.98
2019-05-02T15:27:18.779Z,22.73
2019-05-02T15:29:48.541Z,22.89
2019-05-02T15:32:32.450Z,22.75
2019-05-02T15:35:24.913Z,22.64
2019-05-02T15:37:56.688Z,22.74
2019-05-02T15:42:56.841Z,22.87
2019-05-02T15:45:26.896Z,22.92
2019-05-02T15:47:56.999Z,23.04
2019-05-02T15:50:26.745Z,22.99
2019-05-02T15:53:03.243Z,23.08
2019-05-02T15:55:39.357Z,23.46
2019-05-02T15:58:04.920Z,23.50
2019-05-02T16:00:41.971Z,23.13
2019-05-02T16:03:12.216Z,23.35
2019-05-02T16:05:45.126Z,23.30
2019-05-02T16:08:14.504Z,23.59
2019-05-02T16:10:44.245Z,23.19
2019-05-02T16:13:17.061Z,23.26
2019-05-02T16:15:46.790Z,23.27
2019-05-02T16:18:16.558Z,23.10
2019-05-02T16:21:04.702Z,22.74
2019-05-02T16:23:32.910Z,22.80
2019-05-02T16:26:05.831Z,22.56
2019-05-02T16:28:36.796Z,22.24
2019-05-02T16:31:08.681Z,22.20
2019-05-02T16:33:38.480Z,22.19
2019-05-02T16:36:08.860Z,22.19
2019-05-02T16:38:38.719Z,22.39
2019-05-02T16:41:09.740Z,22.37
2019-05-02T16:43:41.919Z,22.35
2019-05-02T16:46:14.087Z,22.30
2019-05-02T16:48:43.730Z,22.12
2019-05-02T16:51:29.971Z,21.95
2019-05-02T16:53:46.605Z,21.71
2019-05-02T16:56:16.407Z,21.46
2019-05-02T16:58:47.287Z,21.34
2019-05-02T17:01:24.545Z,21.29
2019-05-02T17:03:48.868Z,21.22
2019-05-02T17:06:22.353Z,21.27
2019-05-02T17:09:11.934Z,21.27
2019-05-02T17:11:43.769Z,21.15
2019-05-02T17:14:13.607Z,20.95
2019-05-02T17:16:47.068Z,20.81
2019-05-02T17:19:14.800Z,21.11
2019-05-02T17:21:54.006Z,21.27
2019-05-02T17:24:17.423Z,20.96
2019-05-02T17:26:48.512Z,20.87
2019-05-02T17:29:21.449Z,20.93
2019-05-02T17:31:54.595Z,21.04
2019-05-02T17:34:24.414Z,20.81
2019-05-02T17:36:53.763Z,21.01
2019-05-02T17:39:23.622Z,21.07
2019-05-02T17:41:53.552Z,21.16
2019-05-02T17:44:24.664Z,21.00
2019-05-02T17:46:58.278Z,20.93
2019-05-02T17:49:34.829Z,20.87
2019-05-02T17:52:26.686Z,20.67
2019-05-02T17:54:57.431Z,20.57
2019-05-02T17:57:28.454Z,20.64
2019-05-02T17:59:56.583Z,20.52
2019-05-02T18:02:26.624Z,20.62
2019-05-02T18:04:56.352Z,20.32
2019-05-02T18:07:32.116Z,20.43
2019-05-02T18:09:57.764Z,20.48
2019-05-02T18:12:27.895Z,20.44
2019-05-02T18:14:59.231Z,20.31
2019-05-02T18:17:31.780Z,20.32
2019-05-02T18:20:05.915Z,20.29
2019-05-02T18:22:34.843Z,20.43
2019-05-02T18:25:06.533Z,20.25
2019-05-02T18:27:36.455Z,20.35
2019-05-02T18:30:08.031Z,20.14
2019-05-02T18:32:38.448Z,19.94
2019-05-02T18:35:11.729Z,19.87
2019-05-02T18:37:46.404Z,20.10
2019-05-02T18:40:14.024Z,19.89
2019-05-02T18:42:43.815Z,19.70
2019-05-02T18:45:18.335Z,19.72
2019-05-02T18:47:48.194Z,19.86
2019-05-02T18:50:44.439Z,19.87
2019-05-02T18:53:10.550Z,19.48
2019-05-02T18:55:42.170Z,19.39
2019-05-02T18:58:12.831Z,19.34
2019-05-02T19:00:42.994Z,19.28
2019-05-02T19:03:17.174Z,19.34
2019-05-02T19:05:46.620Z,19.28
2019-05-02T19:08:28.192Z,19.22
2019-05-02T19:11:02.650Z,19.12
2019-05-02T19:13:19.396Z,18.99
2019-05-02T19:15:49.260Z,18.88
2019-05-02T19:18:19.710Z,18.75
2019-05-02T19:21:03.485Z,18.76
2019-05-02T19:23:35.240Z,18.66
2019-05-02T19:26:09.937Z,18.65
2019-05-02T19:29:03.507Z,18.71
2019-05-02T19:31:44.416Z,18.61
2019-05-02T19:34:11.986Z,18.50
2019-05-02T19:36:43.654Z,18.47
2019-05-02T19:39:13.548Z,18.54
2019-05-02T19:41:45.621Z,17.94
2019-05-02T19:44:21.426Z,18.57
2019-05-02T19:46:47.951Z,18.43
2019-05-02T19:49:17.723Z,18.44
2019-05-02T19:51:54.304Z,18.71
2019-05-02T19:54:19.086Z,18.58
2019-05-02T19:56:48.903Z,18.53
2019-05-02T19:59:24.664Z,18.62
2019-05-02T20:01:52.214Z,18.69
2019-05-02T20:04:22.429Z,18.80
2019-05-02T20:06:52.619Z,18.66
2019-05-02T20:09:22.340Z,18.60
2019-05-02T20:11:52.675Z,18.75
2019-05-02T20:14:22.902Z,18.80
2019-05-02T20:16:55.816Z,18.51
2019-05-02T20:19:27.034Z,18.57
2019-05-02T20:22:06.478Z,18.30
2019-05-02T20:25:03.739Z,18.42
2019-05-02T20:27:33.431Z,18.45
2019-05-02T20:30:03.285Z,18.41
2019-05-02T20:32:33.735Z,18.52
2019-05-02T20:35:03.803Z,18.33
2019-05-02T20:37:33.814Z,18.42
2019-05-02T20:40:03.811Z,18.50
2019-05-02T20:42:33.562Z,18.56
2019-05-02T20:45:03.406Z,18.47
2019-05-02T20:47:33.310Z,18.41
2019-05-02T20:50:05.787Z,18.42
2019-05-02T20:52:35.182Z,18.27
2019-05-02T20:55:05.398Z,18.30
2019-05-02T20:57:35.110Z,18.27
2019-05-02T21:00:05.550Z,18.10
2019-05-02T21:02:35.768Z,18.15
2019-05-02T21:05:05.825Z,18.14
2019-05-02T21:07:55.540Z,18.19
2019-05-02T21:10:29.827Z,18.17
2019-05-02T21:12:59.510Z,18.34
2019-05-02T21:15:29.158Z,18.28
2019-05-02T21:17:59.082Z,18.22
2019-05-02T21:20:28.976Z,18.12
2019-05-02T21:22:58.917Z,18.21
2019-05-02T21:25:29.487Z,18.12
2019-05-02T21:27:59.321Z,18.19
2019-05-02T21:30:29.573Z,18.21
2019-05-02T21:32:59.321Z,18.09
2019-05-02T21:35:29.254Z,18.04
2019-05-02T21:37:59.504Z,18.11
2019-05-02T21:40:29.217Z,18.27
2019-05-02T21:42:58.860Z,18.07
2019-05-02T21:45:28.698Z,18.07
2019-05-02T21:47:58.583Z,17.99
2019-05-02T21:50:49.145Z,17.92
2019-05-02T21:53:32.764Z,17.86
2019-05-02T21:56:27.459Z,17.87
2019-05-02T21:59:07.839Z,17.88
2019-05-02T22:01:47.031Z,18.01
2019-05-02T22:04:16.826Z,17.95
2019-05-02T22:06:46.967Z,17.90
2019-05-02T22:09:16.696Z,17.95
2019-05-02T22:11:46.465Z,18.09
2019-05-02T22:14:16.234Z,17.90
2019-05-02T22:16:46.001Z,17.97
2019-05-02T22:19:15.840Z,17.90
2019-05-02T22:21:45.658Z,17.79
2019-05-02T22:24:15.639Z,17.69
2019-05-02T22:26:45.440Z,17.60
2019-05-02T22:29:15.172Z,17.54
2019-05-02T22:31:46.312Z,17.49
2019-05-02T22:34:16.020Z,17.41
2019-05-02T22:36:45.800Z,17.49
2019-05-02T22:39:48.147Z,17.52
2019-05-02T22:42:17.963Z,17.51
2019-05-02T22:44:47.699Z,17.35
2019-05-02T22:47:17.379Z,17.30
2019-05-02T22:49:47.185Z,17.30
2019-05-02T22:52:16.987Z,17.48
2019-05-02T22:54:46.812Z,17.51
2019-05-02T22:57:16.545Z,17.72
2019-05-02T22:59:46.228Z,17.50
2019-05-02T23:02:15.927Z,17.61
2019-05-02T23:04:45.674Z,17.81
2019-05-02T23:07:15.422Z,17.77
2019-05-02T23:09:46.081Z,17.74
2019-05-02T23:12:15.799Z,17.66
2019-05-02T23:14:45.580Z,17.73
2019-05-02T23:17:15.421Z,17.78
2019-05-02T23:19:45.040Z,17.72
2019-05-02T23:22:14.676Z,17.58
2019-05-02T23:25:09.391Z,17.89
2019-05-02T23:27:48.610Z,17.65
2019-05-02T23:30:22.521Z,17.77
2019-05-02T23:32:52.479Z,17.64
2019-05-02T23:35:22.155Z,17.57
2019-05-02T23:37:52.938Z,17.50
2019-05-02T23:40:22.786Z,17.59
2019-05-02T23:42:52.594Z,17.66
2019-05-02T23:45:22.608Z,17.54
2019-05-02T23:47:52.771Z,17.63
2019-05-02T23:50:23.018Z,17.16
2019-05-02T23:52:52.866Z,17.11
2019-05-02T23:55:22.975Z,17.16
2019-05-02T23:57:52.845Z,17.07
